createdAt,value
2023-02-13T00:01:19.517Z,32.00
2023-02-13T00:03:50.863Z,37.20
2023-02-13T00:06:18.776Z,36.70
2023-02-13T00:08:46.899Z,29.10
2023-02-13T00:11:15.329Z,31.90
2023-02-13T00:13:44.343Z,35.30
2023-02-13T00:16:12.706Z,34.80
2023-02-13T00:18:40.730Z,48.40
2023-02-13T00:21:11.633Z,43.90
2023-02-13T00:23:40.336Z,30.90
2023-02-13T00:26:11.895Z,37.50
2023-02-13T00:28:40.807Z,40.50
2023-02-13T00:31:20.797Z,36.00
2023-02-13T00:33:49.035Z,29.80
2023-02-13T00:36:22.950Z,43.40
2023-02-13T00:38:53.880Z,38.20
2023-02-13T00:41:21.995Z,39.70
2023-02-13T00:43:50.119Z,38.60
2023-02-13T00:46:18.851Z,38.20
2023-02-13T00:48:47.208Z,36.30
2023-02-13T00:51:15.799Z,42.90
2023-02-13T00:53:45.016Z,38.70
2023-02-13T00:56:13.111Z,40.90
2023-02-13T00:58:41.119Z,40.40
2023-02-13T01:01:09.122Z,38.50
2023-02-13T01:03:37.118Z,44.70
2023-02-13T01:06:06.012Z,37.40
2023-02-13T01:08:34.955Z,33.00
2023-02-13T01:11:02.872Z,38.90
2023-02-13T01:13:30.899Z,40.10
2023-02-13T01:15:59.098Z,36.60
2023-02-13T01:18:28.249Z,36.00
2023-02-13T01:21:06.387Z,38.00
2023-02-13T01:23:39.078Z,41.00
2023-02-13T01:26:11.075Z,39.80
2023-02-13T01:28:39.489Z,52.40
2023-02-13T01:31:07.541Z,32.50
2023-02-13T01:33:36.292Z,39.10
2023-02-13T01:36:12.275Z,38.60
2023-02-13T01:38:41.841Z,34.30
2023-02-13T01:41:10.795Z,32.50
2023-02-13T01:43:50.027Z,36.90
2023-02-13T01:46:23.377Z,34.10
2023-02-13T01:48:55.380Z,34.20
2023-02-13T01:51:29.584Z,36.90
2023-02-13T01:54:15.474Z,30.50
2023-02-13T01:57:08.966Z,35.00
2023-02-13T01:59:53.136Z,32.70
2023-02-13T02:02:44.828Z,30.80
2023-02-13T02:05:13.548Z,33.40
2023-02-13T02:07:42.102Z,36.40
2023-02-13T02:10:15.876Z,34.00
2023-02-13T02:12:50.162Z,30.10
2023-02-13T02:15:18.930Z,29.00
2023-02-13T02:17:47.380Z,32.90
2023-02-13T02:20:40.592Z,31.60
2023-02-13T02:23:25.715Z,27.10
2023-02-13T02:26:22.838Z,30.50
2023-02-13T02:29:08.439Z,32.80
2023-02-13T02:32:05.074Z,30.60
2023-02-13T02:35:00.641Z,37.20
2023-02-13T02:38:02.749Z,30.80
2023-02-13T02:40:38.280Z,34.00
2023-02-13T02:43:19.105Z,30.20
2023-02-13T02:45:57.330Z,30.10
2023-02-13T02:48:52.647Z,41.40
2023-02-13T02:51:32.687Z,34.40
2023-02-13T02:54:45.026Z,30.60
2023-02-13T02:57:20.574Z,29.50
2023-02-13T03:00:15.548Z,32.10
2023-02-13T03:03:02.542Z,28.90
2023-02-13T03:05:53.604Z,26.50
2023-02-13T03:08:42.256Z,29.50
2023-02-13T03:11:29.481Z,31.00
2023-02-13T03:14:02.343Z,33.70
2023-02-13T03:16:49.377Z,31.80
2023-02-13T03:20:07.316Z,31.80
2023-02-13T03:22:56.869Z,25.40
2023-02-13T03:25:46.231Z,33.70
2023-02-13T03:28:49.163Z,33.80
2023-02-13T03:33:57.042Z,34.30
2023-02-13T03:37:05.882Z,33.70
2023-02-13T03:40:05.852Z,30.20
2023-02-13T03:43:08.456Z,29.50
2023-02-13T03:45:54.583Z,30.10
2023-02-13T03:48:46.755Z,27.20
2023-02-13T03:51:40.987Z,32.90
2023-02-13T03:54:20.852Z,34.80
2023-02-13T03:57:09.552Z,26.30
2023-02-13T03:59:37.910Z,33.10
2023-02-13T04:02:57.211Z,29.40
2023-02-13T04:05:29.490Z,28.50
2023-02-13T04:10:31.785Z,29.70
2023-02-13T04:13:18.500Z,28.00
2023-02-13T04:16:05.398Z,31.90
2023-02-13T04:18:34.766Z,32.10
2023-02-13T04:21:07.746Z,32.70
2023-02-13T04:23:37.127Z,30.40
2023-02-13T04:26:09.052Z,31.20
2023-02-13T04:28:37.326Z,28.60
2023-02-13T04:34:37.125Z,36.40
2023-02-13T04:37:05.181Z,29.00
2023-02-13T04:39:33.811Z,30.90
2023-02-13T04:42:02.004Z,29.60
2023-02-13T04:44:30.093Z,27.70
2023-02-13T04:46:58.081Z,32.30
2023-02-13T04:49:26.164Z,30.30
2023-02-13T04:51:54.453Z,36.50
2023-02-13T04:54:22.512Z,27.30
2023-02-13T04:56:50.578Z,26.10
2023-02-13T04:59:18.521Z,31.60
2023-02-13T05:01:46.998Z,28.30
2023-02-13T05:04:16.482Z,35.50
2023-02-13T05:06:44.689Z,30.20
2023-02-13T05:09:12.908Z,28.60
2023-02-13T05:11:41.018Z,41.00
2023-02-13T05:14:11.114Z,34.90
2023-02-13T05:16:39.201Z,30.00
2023-02-13T05:19:07.189Z,29.30
2023-02-13T05:21:53.887Z,32.40
2023-02-13T05:24:22.114Z,30.60
2023-02-13T05:26:50.089Z,31.30
2023-02-13T05:29:20.816Z,27.00
2023-02-13T05:31:54.593Z,35.50
2023-02-13T05:34:24.399Z,30.40
2023-02-13T05:36:53.080Z,36.70
2023-02-13T05:39:21.617Z,34.10
2023-02-13T05:41:49.896Z,28.40
2023-02-13T05:44:17.924Z,30.70
2023-02-13T05:46:46.236Z,34.00
2023-02-13T05:49:15.678Z,30.90
2023-02-13T05:51:47.068Z,28.50
2023-02-13T05:54:15.889Z,25.00
2023-02-13T05:56:43.957Z,27.20
2023-02-13T05:59:12.360Z,33.90
2023-02-13T06:01:40.419Z,27.80
2023-02-13T06:04:08.639Z,28.60
2023-02-13T06:06:37.691Z,30.70
2023-02-13T06:09:05.789Z,29.70
2023-02-13T06:11:33.903Z,27.40
2023-02-13T06:14:01.952Z,25.40
2023-02-13T06:16:31.236Z,25.70
2023-02-13T06:18:59.237Z,33.30
2023-02-13T06:21:27.353Z,24.90
2023-02-13T06:23:55.838Z,25.60
2023-02-13T06:26:24.383Z,29.00
2023-02-13T06:28:52.343Z,29.60
2023-02-13T06:31:20.387Z,23.30
2023-02-13T06:33:48.482Z,22.10
2023-02-13T06:36:16.722Z,25.20
2023-02-13T06:38:44.792Z,26.00
2023-02-13T06:41:12.772Z,20.20
2023-02-13T06:43:41.000Z,19.90
2023-02-13T06:46:09.543Z,24.00
2023-02-13T06:48:37.590Z,22.40
2023-02-13T06:51:06.101Z,24.40
2023-02-13T06:53:34.059Z,22.20
2023-02-13T06:56:06.575Z,21.90
2023-02-13T06:58:34.804Z,22.00
2023-02-13T07:01:02.928Z,24.20
2023-02-13T07:03:31.084Z,27.00
2023-02-13T07:05:59.127Z,21.80
2023-02-13T07:08:27.310Z,25.00
2023-02-13T07:10:55.854Z,22.40
2023-02-13T07:13:24.234Z,24.50
2023-02-13T07:15:52.420Z,21.90
2023-02-13T07:18:20.408Z,21.90
2023-02-13T07:20:48.423Z,24.90
2023-02-13T07:23:16.337Z,25.10
2023-02-13T07:25:45.350Z,22.20
2023-02-13T07:28:13.633Z,25.40
2023-02-13T07:30:41.806Z,24.80
2023-02-13T07:33:12.172Z,18.90
2023-02-13T07:35:50.303Z,21.20
2023-02-13T07:38:19.168Z,22.90
2023-02-13T07:40:47.086Z,25.30
2023-02-13T07:43:15.073Z,23.40
2023-02-13T07:45:43.850Z,20.60
2023-02-13T07:48:12.619Z,18.60
2023-02-13T07:50:40.871Z,18.10
2023-02-13T07:53:09.372Z,21.60
2023-02-13T07:55:38.445Z,19.20
2023-02-13T07:58:06.479Z,18.60
2023-02-13T08:00:34.527Z,20.50
2023-02-13T08:03:03.234Z,19.40
2023-02-13T08:05:32.563Z,22.60
2023-02-13T08:08:00.766Z,23.60
2023-02-13T08:10:47.561Z,20.10
2023-02-13T08:13:16.757Z,18.50
2023-02-13T08:15:45.441Z,16.60
2023-02-13T08:18:13.788Z,16.10
2023-02-13T08:20:41.900Z,17.40
2023-02-13T08:23:11.692Z,17.20
2023-02-13T08:25:39.887Z,18.60
2023-02-13T08:28:07.915Z,15.70
2023-02-13T08:30:36.182Z,18.00
2023-02-13T08:33:04.622Z,18.80
2023-02-13T08:35:32.825Z,16.20
2023-02-13T08:38:05.343Z,17.10
2023-02-13T08:40:33.756Z,21.10
2023-02-13T08:43:03.631Z,17.60
2023-02-13T08:45:33.400Z,10.40
2023-02-13T08:48:04.192Z,13.70
2023-02-13T08:50:32.527Z,18.50
2023-02-13T08:53:00.537Z,13.40
2023-02-13T08:55:31.053Z,14.00
2023-02-13T08:58:03.585Z,15.30
2023-02-13T09:00:32.229Z,14.20
2023-02-13T09:03:02.450Z,10.40
2023-02-13T09:05:32.769Z,10.30
2023-02-13T09:08:03.699Z,14.20
2023-02-13T09:10:32.887Z,13.00
2023-02-13T09:13:03.917Z,16.10
2023-02-13T09:15:32.905Z,15.60
2023-02-13T09:18:01.472Z,12.80
2023-02-13T09:20:29.558Z,16.70
2023-02-13T09:22:57.696Z,16.90
2023-02-13T09:25:26.379Z,18.10
2023-02-13T09:27:54.581Z,19.20
2023-02-13T09:30:25.848Z,22.30
2023-02-13T09:32:55.385Z,18.80
2023-02-13T09:35:24.316Z,17.30
2023-02-13T09:37:52.354Z,17.40
2023-02-13T09:40:26.335Z,14.60
2023-02-13T09:43:04.248Z,17.40
2023-02-13T09:45:33.120Z,16.30
2023-02-13T09:48:01.422Z,16.20
2023-02-13T09:50:35.130Z,18.00
2023-02-13T09:53:04.556Z,18.10
2023-02-13T09:55:53.002Z,16.90
2023-02-13T09:58:33.414Z,18.90
2023-02-13T10:01:05.908Z,16.70
2023-02-13T10:03:44.201Z,24.60
2023-02-13T10:06:21.890Z,21.70
2023-02-13T10:09:02.065Z,22.20
2023-02-13T10:11:50.446Z,21.70
2023-02-13T10:14:51.027Z,25.60
2023-02-13T10:17:36.868Z,25.70
2023-02-13T10:20:17.689Z,18.10
2023-02-13T10:22:52.120Z,24.30
2023-02-13T10:25:27.635Z,21.30
2023-02-13T10:28:14.398Z,22.00
2023-02-13T10:30:58.689Z,21.10
2023-02-13T10:33:35.008Z,19.80
2023-02-13T10:36:16.698Z,18.40
2023-02-13T10:38:55.126Z,16.50
2023-02-13T10:41:24.843Z,15.70
2023-02-13T10:44:12.630Z,16.20
2023-02-13T10:46:44.089Z,15.30
2023-02-13T10:49:44.791Z,11.80
2023-02-13T10:52:29.775Z,14.20
2023-02-13T10:55:18.466Z,17.00
2023-02-13T10:58:07.976Z,19.40
2023-02-13T11:04:34.488Z,18.40
2023-02-13T11:07:04.903Z,17.40
2023-02-13T11:09:40.334Z,17.00
2023-02-13T11:12:34.295Z,14.60
2023-02-13T11:15:08.823Z,16.40
2023-02-13T11:17:41.440Z,19.90
2023-02-13T11:20:36.778Z,14.00
2023-02-13T11:23:29.832Z,18.20
2023-02-13T11:26:15.333Z,15.40
2023-02-13T11:28:51.473Z,15.40
2023-02-13T11:31:25.003Z,17.20
2023-02-13T11:33:53.668Z,15.20
2023-02-13T11:36:29.469Z,15.80
2023-02-13T11:39:07.406Z,17.50
2023-02-13T11:41:45.286Z,14.70
2023-02-13T11:44:19.195Z,15.40
2023-02-13T11:46:50.172Z,10.50
2023-02-13T11:49:30.369Z,14.30
2023-02-13T11:52:02.107Z,15.70
2023-02-13T11:54:39.034Z,13.30
2023-02-13T11:57:21.096Z,15.50
2023-02-13T11:59:51.917Z,13.60
2023-02-13T12:02:51.068Z,13.00
2023-02-13T12:05:23.545Z,11.90
2023-02-13T12:07:52.895Z,9.80
2023-02-13T12:10:23.122Z,16.00
2023-02-13T12:13:31.182Z,15.40
2023-02-13T12:16:05.426Z,12.50
2023-02-13T12:18:40.386Z,14.50
2023-02-13T12:21:38.411Z,12.60
2023-02-13T12:24:48.024Z,12.70
2023-02-13T12:27:26.388Z,13.00
2023-02-13T12:30:12.547Z,13.20
2023-02-13T12:32:55.456Z,11.30
2023-02-13T12:35:26.202Z,10.40
2023-02-13T12:38:21.911Z,11.50
2023-02-13T12:41:28.500Z,10.80
2023-02-13T12:44:35.606Z,11.40
2023-02-13T12:47:20.254Z,13.40
2023-02-13T12:49:48.203Z,20.30
2023-02-13T12:52:51.562Z,14.20
2023-02-13T12:55:27.909Z,13.10
2023-02-13T12:58:33.864Z,13.80
2023-02-13T13:01:08.304Z,10.00
2023-02-13T13:03:55.697Z,11.70
2023-02-13T13:06:32.407Z,12.30
2023-02-13T13:09:06.372Z,13.40
2023-02-13T13:11:55.814Z,13.50
2023-02-13T13:14:42.255Z,14.40
2023-02-13T13:17:31.666Z,12.20
2023-02-13T13:20:14.457Z,10.10
2023-02-13T13:22:54.093Z,15.50
2023-02-13T13:25:36.871Z,13.40
2023-02-13T13:28:15.018Z,14.80
2023-02-13T13:30:44.002Z,13.00
2023-02-13T13:33:24.511Z,15.00
2023-02-13T13:36:20.764Z,15.30
2023-02-13T13:39:27.573Z,16.50
2023-02-13T13:42:13.851Z,16.90
2023-02-13T13:45:27.078Z,15.00
2023-02-13T13:47:58.516Z,12.00
2023-02-13T13:50:28.718Z,14.70
2023-02-13T13:53:26.601Z,17.90
2023-02-13T13:55:58.871Z,19.10
2023-02-13T13:58:35.775Z,18.10
2023-02-13T14:01:42.725Z,15.20
2023-02-13T14:04:32.746Z,20.50
2023-02-13T14:07:01.023Z,13.70
2023-02-13T14:09:44.097Z,14.00
2023-02-13T14:12:46.195Z,15.20
2023-02-13T14:15:50.957Z,13.60
2023-02-13T14:18:23.822Z,11.50
2023-02-13T14:20:56.729Z,16.60
2023-02-13T14:23:45.817Z,14.00
2023-02-13T14:26:20.119Z,12.90
2023-02-13T14:28:51.142Z,12.80
2023-02-13T14:31:34.416Z,14.60
2023-02-13T14:34:06.838Z,17.60
2023-02-13T14:36:43.078Z,19.10
2023-02-13T14:39:33.534Z,15.80
2023-02-13T14:42:04.230Z,15.50
2023-02-13T14:44:43.158Z,15.00
2023-02-13T14:47:31.177Z,11.60
2023-02-13T14:50:03.749Z,16.10
2023-02-13T14:52:43.003Z,15.40
2023-02-13T14:55:29.352Z,19.60
2023-02-13T14:58:25.174Z,16.40
2023-02-13T15:01:25.103Z,15.00
2023-02-13T15:04:00.929Z,14.90
2023-02-13T15:06:33.561Z,16.00
2023-02-13T15:09:04.877Z,21.10
2023-02-13T15:11:42.959Z,16.50
2023-02-13T15:14:30.387Z,22.80
2023-02-13T15:17:03.983Z,19.40
2023-02-13T15:19:35.396Z,21.90
2023-02-13T15:22:06.034Z,18.20
2023-02-13T15:24:46.123Z,15.90
2023-02-13T15:27:40.401Z,12.80
2023-02-13T15:30:29.531Z,17.20
2023-02-13T15:33:00.844Z,16.30
2023-02-13T15:35:32.887Z,13.40
2023-02-13T15:40:45.379Z,13.10
2023-02-13T15:43:34.039Z,15.00
2023-02-13T15:46:08.640Z,12.80
2023-02-13T15:48:37.168Z,14.70
2023-02-13T15:51:06.187Z,17.10
2023-02-13T15:53:34.164Z,14.20
2023-02-13T15:56:04.911Z,14.60
2023-02-13T15:58:34.974Z,18.60
2023-02-13T16:01:07.949Z,17.00
2023-02-13T16:03:37.602Z,16.50
2023-02-13T16:06:07.439Z,16.00
2023-02-13T16:08:38.649Z,13.30
2023-02-13T16:11:16.797Z,17.10
2023-02-13T16:14:12.847Z,15.70
2023-02-13T16:17:00.851Z,16.90
2023-02-13T16:19:31.404Z,28.30
2023-02-13T16:22:28.790Z,20.50
2023-02-13T16:25:24.195Z,13.60
2023-02-13T16:27:57.071Z,19.40
2023-02-13T16:30:40.476Z,17.40
2023-02-13T16:33:14.628Z,16.70
2023-02-13T16:35:50.434Z,15.10
2023-02-13T16:38:27.107Z,18.60
2023-02-13T16:40:58.401Z,13.70
2023-02-13T16:43:44.153Z,17.20
2023-02-13T16:46:12.425Z,14.70
2023-02-13T16:48:41.455Z,16.70
2023-02-13T16:51:09.775Z,13.40
2023-02-13T16:53:39.641Z,15.10
2023-02-13T16:56:11.144Z,16.40
2023-02-13T16:58:39.505Z,22.10
2023-02-13T17:01:07.623Z,16.70
2023-02-13T17:03:35.803Z,18.90
2023-02-13T17:06:04.460Z,18.10
2023-02-13T17:08:32.648Z,19.40
2023-02-13T17:11:08.331Z,17.10
2023-02-13T17:13:36.393Z,13.50
2023-02-13T17:16:04.748Z,16.50
2023-02-13T17:18:32.650Z,15.30
2023-02-13T17:21:01.294Z,14.00
2023-02-13T17:23:29.296Z,14.80
2023-02-13T17:25:57.392Z,17.80
2023-02-13T17:28:27.865Z,16.90
2023-02-13T17:30:59.763Z,15.30
2023-02-13T17:35:58.199Z,21.50
2023-02-13T17:38:26.316Z,24.50
2023-02-13T17:40:54.405Z,17.60
2023-02-13T17:43:22.473Z,17.00
2023-02-13T17:45:50.749Z,23.80
2023-02-13T17:48:18.822Z,19.20
2023-02-13T17:50:49.212Z,22.00
2023-02-13T17:53:31.605Z,22.20
2023-02-13T17:56:00.549Z,20.30
2023-02-13T17:58:28.525Z,20.40
2023-02-13T18:00:56.950Z,20.90
2023-02-13T18:03:25.328Z,12.70
2023-02-13T18:05:53.421Z,16.60
2023-02-13T18:08:22.384Z,19.20
2023-02-13T18:10:50.400Z,17.40
2023-02-13T18:13:18.551Z,18.30
2023-02-13T18:15:47.463Z,21.00
2023-02-13T18:18:16.599Z,18.30
2023-02-13T18:20:45.065Z,19.70
2023-02-13T18:23:14.216Z,22.30
2023-02-13T18:25:42.510Z,18.80
2023-02-13T18:28:10.517Z,20.00
2023-02-13T18:30:42.397Z,20.30
2023-02-13T18:33:10.513Z,17.70
2023-02-13T18:35:38.582Z,18.00
2023-02-13T18:38:06.467Z,16.80
2023-02-13T18:40:34.451Z,19.10
2023-02-13T18:43:02.542Z,18.60
2023-02-13T18:45:30.922Z,18.00
2023-02-13T18:47:59.429Z,17.40
2023-02-13T18:50:27.386Z,18.30
2023-02-13T18:52:55.353Z,22.40
2023-02-13T18:55:23.360Z,18.00
2023-02-13T18:57:54.305Z,16.10
2023-02-13T19:04:36.144Z,18.70
2023-02-13T19:07:04.074Z,18.00
2023-02-13T19:09:32.162Z,20.20
2023-02-13T19:12:00.231Z,15.20
2023-02-13T19:14:28.194Z,18.60
2023-02-13T19:16:56.111Z,16.90
2023-02-13T19:19:25.835Z,18.00
2023-02-13T19:21:54.029Z,22.30
2023-02-13T19:24:21.972Z,21.80
2023-02-13T19:26:50.053Z,16.60
2023-02-13T19:29:18.229Z,16.20
2023-02-13T19:31:47.024Z,13.00
2023-02-13T19:34:15.334Z,21.00
2023-02-13T19:36:43.608Z,20.30
2023-02-13T19:39:11.844Z,20.20
2023-02-13T19:41:40.867Z,18.50
2023-02-13T19:44:08.938Z,15.30
2023-02-13T19:46:38.368Z,15.30
2023-02-13T19:49:06.459Z,19.20
2023-02-13T19:51:35.044Z,13.20
2023-02-13T19:54:06.447Z,16.90
2023-02-13T19:56:37.644Z,18.70
2023-02-13T19:59:07.142Z,15.80
2023-02-13T20:01:35.179Z,16.20
2023-02-13T20:04:03.207Z,19.30
2023-02-13T20:06:35.805Z,13.00
2023-02-13T20:09:10.346Z,15.60
2023-02-13T20:11:40.414Z,17.10
2023-02-13T20:14:14.391Z,19.20
2023-02-13T20:16:45.524Z,23.20
2023-02-13T20:19:14.242Z,15.50
2023-02-13T20:21:42.691Z,17.20
2023-02-13T20:24:12.185Z,17.10
2023-02-13T20:26:40.449Z,18.50
2023-02-13T20:29:09.290Z,23.10
2023-02-13T20:31:41.264Z,21.70
2023-02-13T20:34:10.257Z,18.10
2023-02-13T20:36:38.433Z,14.10
2023-02-13T20:39:07.730Z,20.20
2023-02-13T20:41:37.145Z,21.40
2023-02-13T20:44:10.395Z,21.00
2023-02-13T20:46:40.037Z,17.80
2023-02-13T20:49:10.095Z,17.10
2023-02-13T20:51:38.368Z,16.90
2023-02-13T20:54:06.503Z,15.10
2023-02-13T20:56:34.461Z,24.00
2023-02-13T20:59:03.290Z,18.40
2023-02-13T21:01:40.457Z,14.30
2023-02-13T21:04:11.312Z,19.40
2023-02-13T21:06:41.780Z,15.30
2023-02-13T21:09:10.514Z,13.90
2023-02-13T21:11:41.390Z,14.90
2023-02-13T21:14:13.855Z,16.00
2023-02-13T21:16:42.677Z,18.50
2023-02-13T21:19:17.773Z,17.10
2023-02-13T21:21:46.965Z,16.00
2023-02-13T21:24:19.344Z,17.10
2023-02-13T21:26:49.389Z,20.70
2023-02-13T21:29:17.460Z,21.10
2023-02-13T21:31:49.760Z,19.10
2023-02-13T21:34:18.721Z,17.10
2023-02-13T21:36:46.815Z,17.60
2023-02-13T21:39:15.479Z,19.50
2023-02-13T21:41:45.510Z,17.80
2023-02-13T21:44:15.367Z,14.00
2023-02-13T21:46:45.404Z,18.70
2023-02-13T21:49:16.128Z,22.20
2023-02-13T21:51:44.543Z,14.90
2023-02-13T21:54:13.479Z,18.10
2023-02-13T21:56:42.778Z,23.10
2023-02-13T21:59:15.256Z,17.60
2023-02-13T22:01:50.415Z,17.00
2023-02-13T22:04:18.771Z,16.40
2023-02-13T22:06:51.577Z,17.60
2023-02-13T22:09:21.187Z,18.80
2023-02-13T22:11:51.845Z,19.00
2023-02-13T22:14:22.380Z,23.60
2023-02-13T22:16:51.644Z,18.20
2023-02-13T22:19:20.451Z,19.40
2023-02-13T22:21:49.497Z,15.00
2023-02-13T22:24:17.800Z,17.60
2023-02-13T22:26:45.831Z,19.10
2023-02-13T22:29:15.921Z,14.40
2023-02-13T22:31:44.990Z,16.60
2023-02-13T22:34:14.001Z,16.90
2023-02-13T22:36:42.907Z,18.30
2023-02-13T22:39:12.073Z,18.90
2023-02-13T22:41:41.079Z,17.10
2023-02-13T22:44:09.131Z,16.30
2023-02-13T22:46:37.561Z,17.20
2023-02-13T22:49:05.434Z,15.70
2023-02-13T22:51:36.245Z,24.30
2023-02-13T22:54:04.819Z,15.80
2023-02-13T22:56:34.295Z,16.10
2023-02-13T22:59:02.533Z,14.10
2023-02-13T23:01:30.536Z,19.10
2023-02-13T23:03:59.346Z,15.90
2023-02-13T23:06:27.839Z,14.80
2023-02-13T23:08:56.705Z,18.30
2023-02-13T23:11:46.975Z,15.80
2023-02-13T23:14:15.812Z,14.40
2023-02-13T23:17:02.840Z,19.40
2023-02-13T23:19:31.205Z,16.10
2023-02-13T23:22:00.267Z,22.00
2023-02-13T23:24:29.939Z,18.50
2023-02-13T23:26:59.172Z,15.50
2023-02-13T23:29:27.413Z,18.00
2023-02-13T23:31:56.373Z,16.90
2023-02-13T23:34:25.242Z,17.20
2023-02-13T23:36:53.343Z,18.60
2023-02-13T23:39:21.627Z,16.40
2023-02-13T23:41:49.711Z,17.20
2023-02-13T23:44:17.756Z,16.90
2023-02-13T23:46:45.739Z,15.90
2023-02-13T23:49:13.700Z,20.50
2023-02-13T23:51:41.628Z,15.80
2023-02-13T23:54:35.534Z,15.40
2023-02-13T23:57:03.781Z,15.70
2023-02-13T23:59:32.104Z,19.80
